Main page
METAR-TAF:

METAR-TAF

Airports :

Vannes Airport

Vannes, France

latitude: 47-43-19N, longitude: 2-43-41W, elevation: 130 m

Current weather observation

The report was made 38 minutes ago, at 13:00 UTC
Wind 12 kt from the East/Northeast, varying between North/Northeast and East/Southeast
Temperature 25°C
Humidity 41%
Pressure 1026 hPa
Visibility 10 km or more
no clouds below 1500 m and no cumulonimbus

METAR: LFRV 281300Z AUTO 07012KT 030V110 CAVOK 25/11 Q1026

Time: 15:38 (13:38 UTC)


TAF: missing

Weather observations and forecasts of more than 4000 airports (METAR and TAF reports).

The available stations are represented by yellow and red dots on the map.

Hover mouse over dot to see the name of the station.

Then click to see weather observations and forecasts.

To change the map : click on the green buttons with a black cross to zoom in, on the green button with a dash to zoom out, or on the green arrows for adjacent maps.


METAR-TAF: